Ora Direzione Vento Velocita' Vento Media Vento Raffica Max. Temperatura Wind Chill Pioggia Pressione
04:46:06.0350 °(N)5.2 Kts5.2 Kts7.8 Kts6.1 °C3.6 °C0.0 mm1007.1 Hpa
04:25:25.011 °(N)6.1 Kts4.3 Kts7.8 Kts6.0 °C4.5 °C0.0 mm1007.5 Hpa
04:04:44.05 °(N)5.2 Kts5.2 Kts7.8 Kts5.8 °C3.3 °C0.0 mm1007.7 Hpa
03:44:04.055 °(NE)4.3 Kts3.5 Kts7.8 Kts5.9 °C5.9 °C0.0 mm1007.5 Hpa
03:25:25.049 °(NE)4.3 Kts4.3 Kts7.8 Kts5.7 °C4.2 °C0.0 mm1007.4 Hpa
03:04:46.053 °(NE)2.6 Kts2.6 Kts7.8 Kts5.7 °C5.7 °C0.0 mm1007.4 Hpa
02:46:01.039 °(NE)5.2 Kts5.2 Kts7.8 Kts5.9 °C3.4 °C0.0 mm1007.4 Hpa
02:25:21.048 °(NE)6.1 Kts6.1 Kts29.5 Kts6.2 °C2.7 °C2.4 mm1007.0 Hpa
02:04:38.044 °(NE)5.2 Kts5.2 Kts29.5 Kts5.9 °C3.4 °C2.4 mm1007.0 Hpa
01:45:55.048 °(NE)6.1 Kts7.8 Kts29.5 Kts6.2 °C0.7 °C2.4 mm1007.0 Hpa
01:25:11.064 °(ENE)11.3 Kts10.4 Kts29.5 Kts6.3 °C-1.2 °C2.4 mm1006.7 Hpa
01:04:29.045 °(NE)8.7 Kts12.2 Kts29.5 Kts6.2 °C-2.3 °C2.4 mm1006.7 Hpa
00:45:54.040 °(NE)11.3 Kts10.4 Kts29.5 Kts5.9 °C-1.7 °C2.4 mm1006.5 Hpa
00:25:15.057 °(ENE)4.3 Kts7.0 Kts29.5 Kts5.5 °C0.9 °C2.4 mm1006.8 Hpa
00:04:35.055 °(NE)11.3 Kts9.6 Kts29.5 Kts5.5 °C-1.6 °C2.4 mm1006.7 Hpa
23:45:57.032 °(NNE)15.6 Kts11.3 Kts29.5 Kts5.6 °C-2.6 °C2.4 mm1006.5 Hpa
23:25:15.036 °(NE)16.5 Kts12.2 Kts29.5 Kts6.0 °C-2.6 °C2.2 mm1006.5 Hpa
23:04:31.055 °(NE)6.1 Kts6.1 Kts29.5 Kts6.2 °C2.8 °C1.8 mm1006.6 Hpa
22:45:56.044 °(NE)0.0 Kts1.7 Kts29.5 Kts6.4 °C6.4 °C1.4 mm1006.1 Hpa
22:25:11.044 °(NE)4.3 Kts2.6 Kts29.5 Kts6.8 °C6.8 °C1.0 mm1005.7 Hpa